Terminal Aerodrome Forecast
Issued by NWS

Home | Current Version | Previous Version | Text Only | Print | Product List | Glossary On
Versions: 1 2 3 4 5 6 7 8 9 10 11 12 13 14 15
000
FTUS45 KRIW 072333
TAFCPR
TAF
KCPR 072333Z 0800/0824 VRB05KT P6SM SKC
     FM080400 VRB05KT P6SM VCFG FEW005
     FM081700 24008KT P6SM FEW080=

USA.gov is the U.S. government's official web portal to all federal, state and local government web resources and services.